X  Κλείσε Στοιχεία αεροπορικών μετεωρολογικών δεδομένων METAR        EBOS Ostend-Bruges International Airport
θερμοκρασία
39°F θερμοκρασία
37°F Σημείο δρόσου
93% Υγρασία



Ανεμος
1 MPH
2 KM/H
0 M/S
1 KTS



-1°
VRB
Τρέχουσες συνθήκες

Mostly Cloudy Κυρίως συννεφιά
πίεση 1022 (hPa) - 30.18 (inHg)
Ορατότητα 6 (μίλι) - 10 (km)
Aεροδρόμιο
Κωδικός αεροδρομίου EBOS

Τοποθεσία: Ostend-Bruges International Airport
Απόσταση: 60 (mi)

Metar:
METAR EBOS 060920Z VRB01KT 9999 FEW018 BKN028 04/03 Q1022 NOSIG

ώρα: 06-12-2022 10:20 CET